createdAt,value
2024-03-03T00:00:26.240Z,5.47
2024-03-03T00:02:56.375Z,7.43
2024-03-03T00:05:26.479Z,6.33
2024-03-03T00:07:59.001Z,4.93
2024-03-03T00:10:28.977Z,5.40
2024-03-03T00:12:59.367Z,8.10
2024-03-03T00:15:29.274Z,6.13
2024-03-03T00:17:59.222Z,7.13
2024-03-03T00:20:30.075Z,6.03
2024-03-03T00:23:02.613Z,5.77
2024-03-03T00:25:32.498Z,6.03
2024-03-03T00:28:02.504Z,5.47
2024-03-03T00:30:32.298Z,6.03
2024-03-03T00:33:02.095Z,6.40
2024-03-03T00:35:31.907Z,8.83
2024-03-03T00:38:04.396Z,8.50
2024-03-03T00:40:34.616Z,5.57
2024-03-03T00:43:04.675Z,6.60
2024-03-03T00:45:34.813Z,5.53
2024-03-03T00:48:04.886Z,6.33
2024-03-03T00:50:34.802Z,6.63
2024-03-03T00:53:07.619Z,5.67
2024-03-03T00:55:37.820Z,8.17
2024-03-03T00:58:10.692Z,5.63
2024-03-03T01:00:41.180Z,6.30
2024-03-03T01:03:11.085Z,6.83
2024-03-03T01:05:41.657Z,5.87
2024-03-03T01:08:14.834Z,6.60
2024-03-03T01:10:44.677Z,6.23
2024-03-03T01:13:14.584Z,4.80
2024-03-03T01:15:44.465Z,7.17
2024-03-03T01:18:14.362Z,4.43
2024-03-03T01:20:44.425Z,4.40
2024-03-03T01:23:17.425Z,4.83
2024-03-03T01:25:49.831Z,4.70
2024-03-03T01:28:19.923Z,3.97
2024-03-03T01:30:50.011Z,6.33
2024-03-03T01:33:19.850Z,4.47
2024-03-03T01:35:49.698Z,5.40
2024-03-03T01:38:22.130Z,5.50
2024-03-03T01:40:54.149Z,7.77
2024-03-03T01:43:24.019Z,4.30
2024-03-03T01:45:54.200Z,6.37
2024-03-03T01:48:24.111Z,5.10
2024-03-03T01:50:54.789Z,6.73
2024-03-03T01:53:28.655Z,6.23
2024-03-03T01:55:59.898Z,5.43
2024-03-03T01:58:32.383Z,6.23
2024-03-03T02:01:04.698Z,7.57
2024-03-03T02:03:36.468Z,6.70
2024-03-03T02:06:06.793Z,4.63
2024-03-03T02:08:40.307Z,6.07
2024-03-03T02:11:10.303Z,6.33
2024-03-03T02:13:40.192Z,6.70
2024-03-03T02:16:10.841Z,6.57
2024-03-03T02:18:40.714Z,6.07
2024-03-03T02:21:10.558Z,12.23
2024-03-03T02:23:43.008Z,8.87
2024-03-03T02:26:12.853Z,5.87
2024-03-03T02:28:43.131Z,10.27
2024-03-03T02:31:13.136Z,6.57
2024-03-03T02:33:49.336Z,6.37
2024-03-03T02:36:19.298Z,6.27
2024-03-03T02:38:58.815Z,7.13
2024-03-03T02:41:28.630Z,5.97
2024-03-03T02:44:01.349Z,5.53
2024-03-03T02:46:31.756Z,5.43
2024-03-03T02:49:01.656Z,4.17
2024-03-03T02:51:35.960Z,5.10
2024-03-03T02:54:09.892Z,7.20
2024-03-03T02:56:39.991Z,4.50
2024-03-03T02:59:09.925Z,4.90
2024-03-03T03:01:44.128Z,5.07
2024-03-03T03:04:14.267Z,4.23
2024-03-03T03:06:53.683Z,5.37
2024-03-03T03:09:27.428Z,4.87
2024-03-03T03:12:03.674Z,4.47
2024-03-03T03:14:33.802Z,3.97
2024-03-03T03:17:03.818Z,7.53
2024-03-03T03:19:38.492Z,4.50
2024-03-03T03:22:11.744Z,4.07
2024-03-03T03:24:47.915Z,4.10
2024-03-03T03:27:24.375Z,8.07
2024-03-03T03:29:57.460Z,5.67
2024-03-03T03:32:27.457Z,5.40
2024-03-03T03:34:57.537Z,5.50
2024-03-03T03:37:33.515Z,4.83
2024-03-03T03:40:11.298Z,6.00
2024-03-03T03:42:41.394Z,6.93
2024-03-03T03:45:12.092Z,7.47
2024-03-03T03:47:42.070Z,6.43
2024-03-03T03:50:13.502Z,5.10
2024-03-03T03:52:43.423Z,3.93
2024-03-03T03:55:16.109Z,9.10
2024-03-03T03:57:46.415Z,5.80
2024-03-03T04:00:17.368Z,7.47
2024-03-03T04:02:47.635Z,6.50
2024-03-03T04:05:17.452Z,6.73
2024-03-03T04:07:47.790Z,5.57
2024-03-03T04:10:20.477Z,6.13
2024-03-03T04:12:50.627Z,4.63
2024-03-03T04:15:20.647Z,7.47
2024-03-03T04:17:51.113Z,7.97
2024-03-03T04:20:21.086Z,9.00
2024-03-03T04:22:51.210Z,6.33
2024-03-03T04:25:23.790Z,8.70
2024-03-03T04:27:53.699Z,6.10
2024-03-03T04:30:23.512Z,7.03
2024-03-03T04:32:53.502Z,6.63
2024-03-03T04:35:23.434Z,9.70
2024-03-03T04:37:53.549Z,7.10
2024-03-03T04:40:26.248Z,10.03
2024-03-03T04:42:56.142Z,8.40
2024-03-03T04:45:26.030Z,7.03
2024-03-03T04:47:55.969Z,9.47
2024-03-03T04:50:25.904Z,5.40
2024-03-03T04:52:55.877Z,7.03
2024-03-03T04:55:28.399Z,5.33
2024-03-03T04:58:08.761Z,5.77
2024-03-03T05:00:48.076Z,8.67
2024-03-03T05:03:18.018Z,7.00
2024-03-03T05:05:48.058Z,7.47
2024-03-03T05:08:17.902Z,5.90
2024-03-03T05:10:51.812Z,7.77
2024-03-03T05:13:21.941Z,7.67
2024-03-03T05:15:55.512Z,7.93
2024-03-03T05:18:34.739Z,7.60
2024-03-03T05:21:07.697Z,12.03
2024-03-03T05:23:40.576Z,11.43
2024-03-03T05:26:19.487Z,7.20
2024-03-03T05:28:55.622Z,7.73
2024-03-03T05:31:26.037Z,8.33
2024-03-03T05:33:56.008Z,10.90
2024-03-03T05:36:26.190Z,9.20
2024-03-03T05:38:56.561Z,9.07
2024-03-03T05:41:34.248Z,7.27
2024-03-03T05:44:05.519Z,6.77
2024-03-03T05:46:35.523Z,8.73
2024-03-03T05:49:05.596Z,7.47
2024-03-03T05:51:35.499Z,7.27
2024-03-03T05:54:06.107Z,6.73
2024-03-03T05:56:39.262Z,6.23
2024-03-03T05:59:09.287Z,6.20
2024-03-03T06:01:40.810Z,6.63
2024-03-03T06:04:10.793Z,11.67
2024-03-03T06:06:44.030Z,7.60
2024-03-03T06:09:14.878Z,11.70
2024-03-03T06:11:47.709Z,9.90
2024-03-03T06:14:17.932Z,6.90
2024-03-03T06:16:49.301Z,6.23
2024-03-03T06:19:20.447Z,8.30
2024-03-03T06:21:51.984Z,8.97
2024-03-03T06:24:25.786Z,9.17
2024-03-03T06:26:58.718Z,9.70
2024-03-03T06:29:29.156Z,7.20
2024-03-03T06:32:10.043Z,11.17
2024-03-03T06:34:49.987Z,9.40
2024-03-03T06:37:23.335Z,10.53
2024-03-03T06:39:53.583Z,7.83
2024-03-03T06:42:26.090Z,6.57
2024-03-03T06:44:56.014Z,7.40
2024-03-03T06:47:25.917Z,10.30
2024-03-03T06:49:56.256Z,8.93
2024-03-03T06:52:26.235Z,12.03
2024-03-03T06:54:56.380Z,11.03
2024-03-03T06:57:29.169Z,9.33
2024-03-03T06:59:59.623Z,11.67
2024-03-03T07:02:50.129Z,10.57
2024-03-03T07:05:22.900Z,10.80
2024-03-03T07:07:52.762Z,8.97
2024-03-03T07:10:28.187Z,10.73
2024-03-03T07:13:04.232Z,11.30
2024-03-03T07:15:34.585Z,12.93
2024-03-03T07:18:10.867Z,14.67
2024-03-03T07:20:41.375Z,10.97
2024-03-03T07:23:11.483Z,12.60
2024-03-03T07:25:44.440Z,13.73
2024-03-03T07:28:18.397Z,13.23
2024-03-03T07:30:49.989Z,14.23
2024-03-03T07:33:19.833Z,14.60
2024-03-03T07:35:52.275Z,11.60
2024-03-03T07:38:24.193Z,16.83
2024-03-03T07:41:03.678Z,13.50
2024-03-03T07:43:38.533Z,16.97
2024-03-03T07:46:09.098Z,13.97
2024-03-03T07:48:39.287Z,16.47
2024-03-03T07:51:10.828Z,13.30
2024-03-03T07:53:41.197Z,14.60
2024-03-03T07:56:14.092Z,14.03
2024-03-03T07:58:46.837Z,14.60
2024-03-03T08:01:24.394Z,16.23
2024-03-03T08:03:57.362Z,13.93
2024-03-03T08:06:29.904Z,13.30
2024-03-03T08:09:04.704Z,14.27
2024-03-03T08:11:35.987Z,18.57
2024-03-03T08:14:08.952Z,12.93
2024-03-03T08:16:38.737Z,17.03
2024-03-03T08:19:09.029Z,13.13
2024-03-03T08:21:39.002Z,15.60
2024-03-03T08:24:20.248Z,14.67
2024-03-03T08:26:51.515Z,13.63
2024-03-03T08:29:25.362Z,16.30
2024-03-03T08:31:55.217Z,16.17
2024-03-03T08:34:25.391Z,14.20
2024-03-03T08:36:56.097Z,15.33
2024-03-03T08:39:35.171Z,18.27
2024-03-03T08:42:05.308Z,14.63
2024-03-03T08:44:40.317Z,16.67
2024-03-03T08:47:07.638Z,15.67
2024-03-03T08:49:37.777Z,14.43
2024-03-03T08:52:10.994Z,15.80
2024-03-03T08:54:44.057Z,14.63
2024-03-03T08:57:15.147Z,14.10
2024-03-03T08:59:48.217Z,16.03
2024-03-03T09:02:21.554Z,18.33
2024-03-03T09:04:51.756Z,15.10
2024-03-03T09:07:24.728Z,18.53
2024-03-03T09:10:11.239Z,13.00
2024-03-03T09:12:41.238Z,12.60
2024-03-03T09:15:14.655Z,14.17
2024-03-03T09:17:44.585Z,14.17
2024-03-03T09:20:16.014Z,13.87
2024-03-03T09:22:45.816Z,14.57
2024-03-03T09:25:15.692Z,14.83
2024-03-03T09:27:45.669Z,13.93
2024-03-03T09:30:18.528Z,14.13
2024-03-03T09:32:52.780Z,18.07
2024-03-03T09:35:23.399Z,14.13
2024-03-03T09:37:54.295Z,21.17
2024-03-03T09:40:27.060Z,14.90
2024-03-03T09:42:57.876Z,14.10
2024-03-03T09:45:34.936Z,14.87
2024-03-03T09:48:15.535Z,12.30
2024-03-03T09:50:46.762Z,14.83
2024-03-03T09:53:19.166Z,15.33
2024-03-03T09:55:50.124Z,11.80
2024-03-03T09:58:21.383Z,15.10
2024-03-03T10:00:58.076Z,14.53
2024-03-03T10:03:34.296Z,19.33
2024-03-03T10:06:08.645Z,14.33
2024-03-03T10:08:44.806Z,17.40
2024-03-03T10:11:19.061Z,13.53
2024-03-03T10:13:58.305Z,15.30
2024-03-03T10:16:33.016Z,14.80
2024-03-03T10:19:04.074Z,13.30
2024-03-03T10:21:37.916Z,13.73
2024-03-03T10:24:22.754Z,12.70
2024-03-03T10:26:53.961Z,12.77
2024-03-03T10:29:32.515Z,13.50
2024-03-03T10:32:12.683Z,13.77
2024-03-03T10:34:43.447Z,11.40
2024-03-03T10:37:16.649Z,12.90
2024-03-03T10:39:46.549Z,12.60
2024-03-03T10:42:16.413Z,17.23
2024-03-03T10:44:46.740Z,14.60
2024-03-03T10:47:22.761Z,14.40
2024-03-03T10:49:53.871Z,15.07
2024-03-03T10:52:23.687Z,12.57
2024-03-03T10:54:54.586Z,12.73
2024-03-03T10:57:26.266Z,13.68
2024-03-03T10:59:58.421Z,10.70
2024-03-03T11:02:33.005Z,11.38
2024-03-03T11:05:04.648Z,12.20
2024-03-03T11:07:38.300Z,16.90
2024-03-03T11:10:10.034Z,13.23
2024-03-03T11:12:41.167Z,14.43
2024-03-03T11:15:16.362Z,12.15
2024-03-03T11:17:52.152Z,11.23
2024-03-03T11:20:25.489Z,11.00
2024-03-03T11:23:09.651Z,13.77
2024-03-03T11:25:52.397Z,10.35
2024-03-03T11:28:27.274Z,13.98
2024-03-03T11:30:57.419Z,10.48
2024-03-03T11:33:33.267Z,11.40
2024-03-03T11:36:03.598Z,9.80
2024-03-03T11:38:44.818Z,10.82
2024-03-03T11:41:14.731Z,8.40
2024-03-03T11:43:45.265Z,10.15
2024-03-03T11:46:51.212Z,12.57
2024-03-03T11:49:27.640Z,10.52
2024-03-03T11:51:57.521Z,9.82
2024-03-03T11:54:37.340Z,12.52
2024-03-03T11:57:12.388Z,12.50
2024-03-03T11:59:51.305Z,9.50
2024-03-03T12:02:21.368Z,10.45
2024-03-03T12:04:54.083Z,12.68
2024-03-03T12:07:24.257Z,11.70
2024-03-03T12:09:54.798Z,11.00
2024-03-03T12:12:24.706Z,10.50
2024-03-03T12:14:54.538Z,8.20
2024-03-03T12:17:24.359Z,9.63
2024-03-03T12:19:58.490Z,9.65
2024-03-03T12:22:28.570Z,8.95
2024-03-03T12:24:59.712Z,7.63
2024-03-03T12:27:29.772Z,11.02
2024-03-03T12:30:06.680Z,11.00
2024-03-03T12:32:37.955Z,8.73
2024-03-03T12:35:11.847Z,8.35
2024-03-03T12:37:42.501Z,9.23
2024-03-03T12:40:14.978Z,9.82
2024-03-03T12:42:47.343Z,8.18
2024-03-03T12:45:18.319Z,11.27
2024-03-03T12:47:48.944Z,7.55
2024-03-03T12:50:23.709Z,7.00
2024-03-03T12:52:55.225Z,6.68
2024-03-03T12:55:30.670Z,9.20
2024-03-03T12:58:02.435Z,9.85
2024-03-03T13:00:32.382Z,7.32
2024-03-03T13:03:02.457Z,7.20
2024-03-03T13:05:34.987Z,6.53
2024-03-03T13:08:06.703Z,9.30
2024-03-03T13:10:38.578Z,9.13
2024-03-03T13:13:11.980Z,7.82
2024-03-03T13:15:50.446Z,8.50
2024-03-03T13:18:23.422Z,7.68
2024-03-03T13:20:55.893Z,6.80
2024-03-03T13:23:26.346Z,6.10
2024-03-03T13:25:56.424Z,6.70
2024-03-03T13:28:30.900Z,7.45
2024-03-03T13:31:03.972Z,7.65
2024-03-03T13:33:38.675Z,8.45
2024-03-03T13:36:14.286Z,9.13
2024-03-03T13:38:44.463Z,9.48
2024-03-03T13:41:14.493Z,6.15
2024-03-03T13:43:44.291Z,9.10
2024-03-03T13:46:26.287Z,6.15
2024-03-03T13:48:56.235Z,8.93
2024-03-03T13:51:28.865Z,7.93
2024-03-03T13:53:58.738Z,8.57
2024-03-03T13:56:28.985Z,8.88
2024-03-03T13:58:58.935Z,7.85
2024-03-03T14:01:31.745Z,8.73
2024-03-03T14:04:04.080Z,9.15
2024-03-03T14:06:38.290Z,9.20
2024-03-03T14:09:09.859Z,8.90
2024-03-03T14:11:40.263Z,9.18
2024-03-03T14:14:10.699Z,9.30
2024-03-03T14:16:40.549Z,15.35
2024-03-03T14:19:10.484Z,11.48
2024-03-03T14:21:44.991Z,7.65
2024-03-03T14:24:15.340Z,8.93
2024-03-03T14:26:45.483Z,8.00
2024-03-03T14:29:15.300Z,7.18
2024-03-03T14:31:45.714Z,7.90
2024-03-03T14:34:15.635Z,8.48
2024-03-03T14:36:48.551Z,9.38
2024-03-03T14:39:18.433Z,8.30
2024-03-03T14:41:48.742Z,9.30
2024-03-03T14:44:18.662Z,10.55
2024-03-03T14:46:49.145Z,11.15
2024-03-03T14:49:19.170Z,10.57
2024-03-03T14:51:54.647Z,11.15
2024-03-03T14:54:24.625Z,9.85
2024-03-03T14:56:57.688Z,10.95
2024-03-03T14:59:27.898Z,12.43
2024-03-03T15:01:57.907Z,10.65
2024-03-03T15:04:27.930Z,11.93
2024-03-03T15:07:01.900Z,11.60
2024-03-03T15:09:32.088Z,10.55
2024-03-03T15:12:01.979Z,11.35
2024-03-03T15:14:31.819Z,11.30
2024-03-03T15:17:02.866Z,11.20
2024-03-03T15:19:33.124Z,11.38
2024-03-03T15:22:07.527Z,10.32
2024-03-03T15:24:39.290Z,11.32
2024-03-03T15:27:09.781Z,13.50
2024-03-03T15:29:43.240Z,11.18
2024-03-03T15:32:14.032Z,12.52
2024-03-03T15:34:44.059Z,12.18
2024-03-03T15:37:16.777Z,13.75
2024-03-03T15:39:46.811Z,11.15
2024-03-03T15:42:16.657Z,11.00
2024-03-03T15:44:48.893Z,11.40
2024-03-03T15:47:19.221Z,12.00
2024-03-03T15:49:49.087Z,9.93
2024-03-03T15:52:22.238Z,8.60
2024-03-03T15:54:52.162Z,10.70
2024-03-03T15:57:22.163Z,12.27
2024-03-03T15:59:52.062Z,10.73
2024-03-03T16:02:22.485Z,9.63
2024-03-03T16:04:52.327Z,10.05
2024-03-03T16:07:24.860Z,12.85
2024-03-03T16:09:54.817Z,12.05
2024-03-03T16:12:24.847Z,12.05
2024-03-03T16:14:57.168Z,9.52
2024-03-03T16:17:30.088Z,10.27
2024-03-03T16:20:00.262Z,9.93
2024-03-03T16:22:33.188Z,10.07
2024-03-03T16:25:03.059Z,7.95
2024-03-03T16:27:33.220Z,8.48
2024-03-03T16:30:04.236Z,8.48
2024-03-03T16:32:34.217Z,11.43
2024-03-03T16:35:04.555Z,13.10
2024-03-03T16:37:37.197Z,8.85
2024-03-03T16:40:09.048Z,7.30
2024-03-03T16:42:39.670Z,9.70
2024-03-03T16:45:10.254Z,8.98
2024-03-03T16:47:40.493Z,10.95
2024-03-03T16:50:11.162Z,9.95
2024-03-03T16:52:43.598Z,9.65
2024-03-03T16:55:13.505Z,11.85
2024-03-03T16:57:45.539Z,12.45
2024-03-03T17:00:16.694Z,8.55
2024-03-03T17:02:46.547Z,10.45
2024-03-03T17:05:16.536Z,8.10
2024-03-03T17:07:50.089Z,9.73
2024-03-03T17:10:20.372Z,13.02
2024-03-03T17:12:50.378Z,13.30
2024-03-03T17:15:20.360Z,10.75
2024-03-03T17:17:51.539Z,14.93
2024-03-03T17:20:21.507Z,13.30
2024-03-03T17:22:54.372Z,12.52
2024-03-03T17:25:24.509Z,19.08
2024-03-03T17:27:54.494Z,15.63
2024-03-03T17:30:24.347Z,13.20
2024-03-03T17:32:55.139Z,14.18
2024-03-03T17:35:25.561Z,15.18
2024-03-03T17:37:58.023Z,11.70
2024-03-03T17:40:28.769Z,14.00
2024-03-03T17:42:59.343Z,14.33
2024-03-03T17:45:29.319Z,10.80
2024-03-03T17:47:59.292Z,12.15
2024-03-03T17:50:29.220Z,13.90
2024-03-03T17:53:02.359Z,13.20
2024-03-03T17:55:32.514Z,15.30
2024-03-03T17:58:04.079Z,14.50
2024-03-03T18:00:43.252Z,15.17
2024-03-03T18:03:13.202Z,16.80
2024-03-03T18:05:43.026Z,14.80
2024-03-03T18:08:15.544Z,18.97
2024-03-03T18:10:45.625Z,11.87
2024-03-03T18:13:15.551Z,15.27
2024-03-03T18:15:47.432Z,12.63
2024-03-03T18:18:23.050Z,15.87
2024-03-03T18:20:53.455Z,13.13
2024-03-03T18:23:34.243Z,12.07
2024-03-03T18:26:06.182Z,11.70
2024-03-03T18:28:36.565Z,12.70
2024-03-03T18:31:08.501Z,15.57
2024-03-03T18:33:39.320Z,10.20
2024-03-03T18:36:15.406Z,10.90
2024-03-03T18:38:48.243Z,11.53
2024-03-03T18:41:20.844Z,14.73
2024-03-03T18:43:51.090Z,19.27
2024-03-03T18:46:21.485Z,24.13
2024-03-03T18:48:51.829Z,13.40
2024-03-03T18:51:21.946Z,15.53
2024-03-03T18:54:04.829Z,16.23
2024-03-03T18:56:36.521Z,15.97
2024-03-03T18:59:07.884Z,16.30
2024-03-03T19:01:38.022Z,19.70
2024-03-03T19:04:10.512Z,19.37
2024-03-03T19:06:41.336Z,17.57
2024-03-03T19:09:14.114Z,27.10
2024-03-03T19:11:44.157Z,37.87
2024-03-03T19:14:14.181Z,29.53
2024-03-03T19:16:49.704Z,29.80
2024-03-03T19:19:30.080Z,35.07
2024-03-03T19:22:00.523Z,26.00
2024-03-03T19:24:33.554Z,25.90
2024-03-03T19:27:05.255Z,24.30
2024-03-03T19:29:37.052Z,26.70
2024-03-03T19:32:07.306Z,21.33
2024-03-03T19:34:42.257Z,29.33
2024-03-03T19:37:12.954Z,24.63
2024-03-03T19:39:46.680Z,19.30
2024-03-03T19:42:19.854Z,21.87
2024-03-03T19:44:50.389Z,15.40
2024-03-03T19:47:23.672Z,22.47
2024-03-03T19:50:00.980Z,25.53
2024-03-03T19:52:31.135Z,22.47
2024-03-03T19:55:07.728Z,21.17
2024-03-03T19:57:37.702Z,16.30
2024-03-03T20:00:16.183Z,22.30
2024-03-03T20:02:49.622Z,20.00
2024-03-03T20:05:20.129Z,21.03
2024-03-03T20:07:51.502Z,22.50
2024-03-03T20:10:24.322Z,19.17
2024-03-03T20:12:56.325Z,19.80
2024-03-03T20:15:28.560Z,20.20
2024-03-03T20:17:58.432Z,25.10
2024-03-03T20:20:28.334Z,28.97
2024-03-03T20:22:58.198Z,22.10
2024-03-03T20:25:30.764Z,20.53
2024-03-03T20:28:01.011Z,21.27
2024-03-03T20:30:30.814Z,21.07
2024-03-03T20:33:00.749Z,21.67
2024-03-03T20:35:30.683Z,22.77
2024-03-03T20:38:00.565Z,21.83
2024-03-03T20:40:33.110Z,20.53
2024-03-03T20:43:05.188Z,24.07
2024-03-03T20:45:36.560Z,28.17
2024-03-03T20:48:07.767Z,22.77
2024-03-03T20:50:38.125Z,24.20
2024-03-03T20:53:08.037Z,19.03
2024-03-03T20:55:42.384Z,20.50
2024-03-03T20:58:12.423Z,25.53
2024-03-03T21:00:42.312Z,24.63
2024-03-03T21:03:12.227Z,23.57
2024-03-03T21:05:42.042Z,19.30
2024-03-03T21:08:14.054Z,25.17
2024-03-03T21:10:47.370Z,21.27
2024-03-03T21:13:17.513Z,15.77
2024-03-03T21:15:47.366Z,19.70
2024-03-03T21:18:31.550Z,17.30
2024-03-03T21:21:01.551Z,14.23
2024-03-03T21:23:31.545Z,13.60
2024-03-03T21:26:10.724Z,14.83
2024-03-03T21:28:40.672Z,11.27
2024-03-03T21:31:11.871Z,11.43
2024-03-03T21:33:42.243Z,9.93
2024-03-03T21:36:12.790Z,12.57
2024-03-03T21:38:43.039Z,10.37
2024-03-03T21:41:16.154Z,13.33
2024-03-03T21:43:46.031Z,11.77
2024-03-03T21:46:17.056Z,12.73
2024-03-03T21:48:47.065Z,13.80
2024-03-03T21:51:17.416Z,10.50
2024-03-03T21:53:49.294Z,15.90
2024-03-03T21:56:21.748Z,12.87
2024-03-03T21:58:51.578Z,13.17
2024-03-03T22:01:21.587Z,11.40
2024-03-03T22:03:53.269Z,12.23
2024-03-03T22:06:28.933Z,13.97
2024-03-03T22:09:01.530Z,16.77
2024-03-03T22:11:35.499Z,13.77
2024-03-03T22:14:05.467Z,15.07
2024-03-03T22:16:35.590Z,15.10
2024-03-03T22:19:05.718Z,14.67
2024-03-03T22:21:35.594Z,19.40
2024-03-03T22:24:06.514Z,19.20
2024-03-03T22:26:42.893Z,25.20
2024-03-03T22:29:13.558Z,18.13
2024-03-03T22:31:43.437Z,21.77
2024-03-03T22:34:14.212Z,21.50
2024-03-03T22:36:44.180Z,20.50
2024-03-03T22:39:16.757Z,26.00
2024-03-03T22:41:49.546Z,23.23
2024-03-03T22:44:19.468Z,27.73
2024-03-03T22:46:49.406Z,27.47
2024-03-03T22:49:19.424Z,26.73
2024-03-03T22:51:50.444Z,27.30
2024-03-03T22:54:21.473Z,24.93
2024-03-03T22:56:54.183Z,25.43
2024-03-03T22:59:24.047Z,28.53
2024-03-03T23:01:54.033Z,29.07
2024-03-03T23:04:26.102Z,29.03
2024-03-03T23:06:56.287Z,29.77
2024-03-03T23:09:34.831Z,32.37
2024-03-03T23:12:07.798Z,40.57
2024-03-03T23:14:37.735Z,42.83
2024-03-03T23:17:07.933Z,35.20
2024-03-03T23:19:42.929Z,39.13
2024-03-03T23:22:12.881Z,36.50
2024-03-03T23:24:43.450Z,35.37
2024-03-03T23:27:16.657Z,34.57
2024-03-03T23:29:46.534Z,33.53
2024-03-03T23:32:16.450Z,31.73
2024-03-03T23:34:46.316Z,29.90
2024-03-03T23:37:19.285Z,31.90
2024-03-03T23:39:50.534Z,33.13
2024-03-03T23:42:24.034Z,30.33
2024-03-03T23:44:53.849Z,33.87
2024-03-03T23:47:25.212Z,34.43
2024-03-03T23:49:58.270Z,34.60
2024-03-03T23:52:28.235Z,36.77
2024-03-03T23:54:58.313Z,34.23
2024-03-03T23:57:32.438Z,33.23
